createdAt,value
2023-05-24T00:00:13.165Z,68.00
2023-05-24T00:02:42.632Z,62.70
2023-05-24T00:05:11.297Z,56.30
2023-05-24T00:07:39.800Z,59.80
2023-05-24T00:10:09.667Z,49.70
2023-05-24T00:12:37.681Z,52.80
2023-05-24T00:15:06.573Z,58.00
2023-05-24T00:17:41.720Z,59.00
2023-05-24T00:20:14.690Z,72.00
2023-05-24T00:22:44.817Z,81.40
2023-05-24T00:25:13.909Z,74.20
2023-05-24T00:27:41.928Z,73.30
2023-05-24T00:30:10.167Z,83.70
2023-05-24T00:32:38.406Z,71.30
2023-05-24T00:35:07.114Z,70.70
2023-05-24T00:37:35.494Z,73.40
2023-05-24T00:40:04.802Z,73.30
2023-05-24T00:42:32.351Z,73.80
2023-05-24T00:45:00.640Z,70.50
2023-05-24T00:47:28.212Z,68.30
2023-05-24T00:49:56.261Z,66.60
2023-05-24T00:52:24.334Z,66.90
2023-05-24T00:54:52.202Z,71.50
2023-05-24T00:57:20.171Z,73.80
2023-05-24T00:59:49.773Z,67.00
2023-05-24T01:02:18.749Z,69.50
2023-05-24T01:04:49.220Z,66.00
2023-05-24T01:07:38.359Z,63.90
2023-05-24T01:10:28.345Z,69.70
2023-05-24T01:13:20.931Z,67.90
2023-05-24T01:15:53.251Z,71.00
2023-05-24T01:18:30.757Z,68.10
2023-05-24T01:21:18.838Z,71.90
2023-05-24T01:23:54.958Z,67.00
2023-05-24T01:26:30.921Z,65.70
2023-05-24T01:28:59.158Z,71.20
2023-05-24T01:31:27.294Z,63.00
2023-05-24T01:33:55.433Z,60.60
2023-05-24T01:36:23.619Z,64.40
2023-05-24T01:38:51.912Z,61.50
2023-05-24T01:41:28.080Z,63.30
2023-05-24T01:44:12.592Z,63.50
2023-05-24T01:46:40.743Z,62.50
2023-05-24T01:49:26.762Z,77.50
2023-05-24T01:52:05.714Z,65.30
2023-05-24T01:54:34.990Z,70.30
2023-05-24T01:57:05.668Z,85.60
2023-05-24T01:59:33.900Z,98.70
2023-05-24T02:02:02.521Z,85.00
2023-05-24T02:04:30.964Z,144.50
2023-05-24T02:06:59.234Z,169.00
2023-05-24T02:09:27.429Z,168.70
2023-05-24T02:11:57.014Z,140.20
2023-05-24T02:14:25.494Z,118.40
2023-05-24T02:16:59.167Z,124.30
2023-05-24T02:19:27.810Z,126.90
2023-05-24T02:21:55.954Z,116.30
2023-05-24T02:24:24.334Z,105.20
2023-05-24T02:26:52.319Z,110.10
2023-05-24T02:29:22.115Z,105.00
2023-05-24T02:31:56.764Z,115.80
2023-05-24T02:34:25.222Z,90.10
2023-05-24T02:36:56.163Z,76.90
2023-05-24T02:39:24.230Z,90.00
2023-05-24T02:41:52.881Z,84.00
2023-05-24T02:44:20.986Z,95.20
2023-05-24T02:46:49.185Z,95.50
2023-05-24T02:49:17.645Z,113.00
2023-05-24T02:51:46.218Z,99.60
2023-05-24T02:54:14.394Z,97.70
2023-05-24T02:56:42.777Z,99.40
2023-05-24T02:59:11.772Z,94.90
2023-05-24T03:01:40.896Z,87.50
2023-05-24T03:04:09.490Z,86.70
2023-05-24T03:06:38.445Z,85.20
2023-05-24T03:09:07.015Z,88.80
2023-05-24T03:11:35.293Z,92.10
2023-05-24T03:14:03.873Z,91.50
2023-05-24T03:16:32.383Z,92.90
2023-05-24T03:19:00.935Z,105.50
2023-05-24T03:21:29.316Z,116.40
2023-05-24T03:23:58.373Z,114.40
2023-05-24T03:26:27.264Z,107.40
2023-05-24T03:28:57.117Z,113.80
2023-05-24T03:31:30.041Z,113.80
2023-05-24T03:33:58.907Z,122.70
2023-05-24T03:36:29.422Z,122.80
2023-05-24T03:38:58.708Z,106.10
2023-05-24T03:41:28.122Z,100.60
2023-05-24T03:43:59.167Z,87.70
2023-05-24T03:46:28.319Z,84.10
2023-05-24T03:48:56.768Z,78.60
2023-05-24T03:51:29.908Z,67.00
2023-05-24T03:53:58.410Z,81.40
2023-05-24T03:56:27.623Z,74.40
2023-05-24T03:58:58.236Z,56.80
2023-05-24T04:01:33.187Z,59.10
2023-05-24T04:04:04.010Z,48.70
2023-05-24T04:06:32.174Z,49.50
2023-05-24T04:09:01.270Z,52.80
2023-05-24T04:11:30.304Z,49.40
2023-05-24T04:14:00.931Z,50.00
2023-05-24T04:16:29.612Z,42.30
2023-05-24T04:18:58.259Z,47.10
2023-05-24T04:21:26.540Z,37.80
2023-05-24T04:23:56.470Z,41.70
2023-05-24T04:26:24.726Z,39.40
2023-05-24T04:28:52.908Z,43.70
2023-05-24T04:31:21.326Z,41.80
2023-05-24T04:33:50.498Z,45.00
2023-05-24T04:36:18.597Z,46.20
2023-05-24T04:38:46.733Z,44.80
2023-05-24T04:41:15.549Z,44.90
2023-05-24T04:43:44.002Z,43.40
2023-05-24T04:46:15.428Z,44.60
2023-05-24T04:48:44.034Z,44.30
2023-05-24T04:51:12.418Z,51.50
2023-05-24T04:53:40.594Z,43.50
2023-05-24T04:56:08.978Z,43.60
2023-05-24T04:58:38.762Z,40.60
2023-05-24T05:01:09.098Z,44.50
2023-05-24T05:03:37.451Z,41.30
2023-05-24T05:06:05.833Z,38.70
2023-05-24T05:08:34.336Z,38.90
2023-05-24T05:11:03.335Z,34.70
2023-05-24T05:13:31.662Z,40.50
2023-05-24T05:15:59.927Z,34.20
2023-05-24T05:18:28.151Z,35.60
2023-05-24T05:20:56.327Z,50.30
2023-05-24T05:23:24.704Z,50.60
2023-05-24T05:25:52.613Z,40.10
2023-05-24T05:28:21.368Z,37.50
2023-05-24T05:30:49.458Z,40.00
2023-05-24T05:33:18.639Z,37.10
2023-05-24T05:35:46.796Z,35.00
2023-05-24T05:38:14.991Z,34.50
2023-05-24T05:40:43.480Z,42.10
2023-05-24T05:43:11.946Z,31.90
2023-05-24T05:45:40.740Z,22.80
2023-05-24T05:48:08.792Z,21.50
2023-05-24T05:50:37.276Z,19.80
2023-05-24T05:53:05.569Z,19.00
2023-05-24T05:55:34.053Z,16.00
2023-05-24T05:58:02.115Z,19.00
2023-05-24T06:03:47.335Z,11.50
2023-05-24T06:06:15.704Z,14.40
2023-05-24T06:08:43.758Z,16.70
2023-05-24T06:11:12.243Z,19.80
2023-05-24T06:13:40.101Z,22.00
2023-05-24T06:16:10.009Z,30.50
2023-05-24T06:18:39.188Z,28.70
2023-05-24T06:21:11.131Z,31.20
2023-05-24T06:23:39.407Z,32.00
2023-05-24T06:26:10.684Z,30.50
2023-05-24T06:31:07.457Z,31.90
2023-05-24T06:33:37.745Z,30.10
2023-05-24T06:36:06.886Z,42.10
2023-05-24T06:38:36.576Z,33.00
2023-05-24T06:41:04.961Z,38.30
2023-05-24T06:43:33.783Z,31.90
2023-05-24T06:46:02.073Z,22.70
2023-05-24T06:48:30.121Z,26.10
2023-05-24T06:50:58.552Z,25.40
2023-05-24T06:53:26.574Z,28.90
2023-05-24T06:55:56.946Z,24.60
2023-05-24T06:58:26.159Z,29.30
2023-05-24T07:00:54.563Z,29.20
2023-05-24T07:03:22.707Z,28.70
2023-05-24T07:05:51.151Z,27.80
2023-05-24T07:08:19.191Z,27.80
2023-05-24T07:10:47.246Z,30.80
2023-05-24T07:13:15.343Z,28.00
2023-05-24T07:16:03.442Z,28.10
2023-05-24T07:18:31.838Z,20.90
2023-05-24T07:21:01.245Z,22.10
2023-05-24T07:23:29.520Z,18.20
2023-05-24T07:25:57.648Z,19.10
2023-05-24T07:28:25.512Z,21.30
2023-05-24T07:30:53.729Z,15.70
2023-05-24T07:33:22.278Z,21.30
2023-05-24T07:35:54.090Z,14.30
2023-05-24T07:38:22.458Z,16.80
2023-05-24T07:40:51.554Z,19.90
2023-05-24T07:43:20.276Z,17.40
2023-05-24T07:45:48.408Z,16.20
2023-05-24T07:48:16.543Z,17.50
2023-05-24T07:50:48.907Z,20.40
2023-05-24T07:53:17.124Z,25.30
2023-05-24T07:55:45.540Z,23.40
2023-05-24T07:58:13.440Z,24.20
2023-05-24T08:00:42.313Z,23.30
2023-05-24T08:03:13.683Z,26.80
2023-05-24T08:05:43.023Z,22.20
2023-05-24T08:08:11.428Z,23.40
2023-05-24T08:10:39.456Z,21.30
2023-05-24T08:13:08.791Z,23.70
2023-05-24T08:15:36.726Z,24.30
2023-05-24T08:18:06.928Z,13.30
2023-05-24T08:20:36.583Z,12.50
2023-05-24T08:23:04.985Z,15.10
2023-05-24T08:25:33.167Z,20.40
2023-05-24T08:28:02.251Z,18.10
2023-05-24T08:30:31.174Z,20.00
2023-05-24T08:33:02.393Z,16.20
2023-05-24T08:35:30.591Z,17.00
2023-05-24T08:37:58.779Z,21.30
2023-05-24T08:40:26.922Z,17.10
2023-05-24T08:42:54.878Z,20.50
2023-05-24T08:45:23.128Z,18.10
2023-05-24T08:47:52.213Z,14.90
2023-05-24T08:50:20.523Z,17.20
2023-05-24T08:52:48.661Z,14.50
2023-05-24T08:55:17.114Z,16.70
2023-05-24T08:57:46.112Z,18.80
2023-05-24T09:00:15.035Z,13.00
2023-05-24T09:02:44.019Z,16.80
2023-05-24T09:05:17.728Z,15.30
2023-05-24T09:07:46.176Z,13.70
2023-05-24T09:10:16.752Z,14.80
2023-05-24T09:12:55.217Z,18.40
2023-05-24T09:15:23.277Z,21.30
2023-05-24T09:17:51.508Z,15.90
2023-05-24T09:20:21.087Z,17.40
2023-05-24T09:22:52.096Z,17.60
2023-05-24T09:25:20.819Z,17.30
2023-05-24T09:27:52.427Z,19.20
2023-05-24T09:30:22.000Z,20.50
2023-05-24T09:33:01.011Z,17.50
2023-05-24T09:35:29.111Z,15.60
2023-05-24T09:38:00.262Z,15.80
2023-05-24T09:40:29.978Z,18.80
2023-05-24T09:43:06.369Z,18.60
2023-05-24T09:45:47.663Z,21.50
2023-05-24T09:51:23.984Z,20.20
2023-05-24T09:53:54.650Z,18.70
2023-05-24T09:58:52.353Z,15.20
2023-05-24T10:01:26.183Z,13.80
2023-05-24T10:03:55.983Z,14.30
2023-05-24T10:06:24.512Z,19.80
2023-05-24T10:08:52.650Z,13.60
2023-05-24T10:11:21.471Z,16.30
2023-05-24T10:13:49.679Z,11.80
2023-05-24T10:16:17.660Z,17.00
2023-05-24T10:18:46.065Z,15.10
2023-05-24T10:21:14.239Z,12.90
2023-05-24T10:23:43.276Z,14.50
2023-05-24T10:26:14.214Z,14.90
2023-05-24T10:28:46.683Z,22.10
2023-05-24T10:31:33.468Z,11.30
2023-05-24T10:34:07.952Z,16.40
2023-05-24T10:36:40.212Z,16.90
2023-05-24T10:39:11.498Z,13.00
2023-05-24T10:41:45.836Z,12.40
2023-05-24T10:44:14.838Z,13.30
2023-05-24T10:47:04.049Z,10.60
2023-05-24T10:49:33.544Z,16.50
2023-05-24T10:52:03.317Z,17.40
2023-05-24T10:54:31.276Z,14.00
2023-05-24T10:57:05.688Z,17.20
2023-05-24T10:59:37.958Z,15.90
2023-05-24T11:02:10.104Z,12.20
2023-05-24T11:04:43.693Z,14.80
2023-05-24T11:07:11.829Z,18.00
2023-05-24T11:09:53.157Z,23.80
2023-05-24T11:12:23.008Z,14.50
2023-05-24T11:14:52.595Z,17.30
2023-05-24T11:17:23.825Z,16.40
2023-05-24T11:19:55.226Z,16.10
2023-05-24T11:22:25.651Z,15.10
2023-05-24T11:24:53.764Z,16.30
2023-05-24T11:27:21.999Z,12.20
2023-05-24T11:29:50.237Z,9.30
2023-05-24T11:32:20.773Z,13.70
2023-05-24T11:34:48.796Z,12.30
2023-05-24T11:37:18.441Z,8.50
2023-05-24T11:39:51.339Z,12.40
2023-05-24T11:42:19.863Z,12.50
2023-05-24T11:44:48.467Z,20.10
2023-05-24T11:47:16.640Z,16.50
2023-05-24T11:49:44.299Z,22.70
2023-05-24T11:52:12.394Z,22.80
2023-05-24T11:54:43.051Z,26.40
2023-05-24T11:57:14.427Z,24.00
2023-05-24T11:59:42.110Z,16.90
2023-05-24T12:02:09.722Z,10.70
2023-05-24T12:04:37.785Z,13.00
2023-05-24T12:07:05.874Z,20.50
2023-05-24T12:09:33.843Z,19.00
2023-05-24T12:12:02.597Z,21.90
2023-05-24T12:14:31.672Z,17.60
2023-05-24T12:17:00.206Z,15.50
2023-05-24T12:19:36.988Z,21.00
2023-05-24T12:22:08.212Z,19.80
2023-05-24T12:24:37.233Z,18.30
2023-05-24T12:27:08.995Z,18.00
2023-05-24T12:29:40.024Z,15.50
2023-05-24T12:32:13.181Z,13.70
2023-05-24T12:34:45.112Z,16.80
2023-05-24T12:37:13.950Z,19.90
2023-05-24T12:39:44.794Z,15.70
2023-05-24T12:42:14.109Z,15.70
2023-05-24T12:44:45.642Z,23.70
2023-05-24T12:47:14.740Z,14.90
2023-05-24T12:49:43.920Z,13.60
2023-05-24T12:52:14.803Z,11.90
2023-05-24T12:54:43.507Z,13.20
2023-05-24T12:57:33.176Z,62.70
2023-05-24T13:00:06.906Z,22.20
2023-05-24T13:02:45.877Z,16.90
2023-05-24T13:05:28.740Z,10.40
2023-05-24T13:08:01.916Z,10.80
2023-05-24T13:10:30.764Z,12.60
2023-05-24T13:12:59.731Z,12.70
2023-05-24T13:15:28.653Z,25.30
2023-05-24T13:17:56.866Z,8.50
2023-05-24T13:20:25.211Z,10.10
2023-05-24T13:22:53.851Z,13.30
2023-05-24T13:25:22.847Z,11.10
2023-05-24T13:27:51.717Z,10.60
2023-05-24T13:30:27.646Z,9.70
2023-05-24T13:32:56.264Z,11.60
2023-05-24T13:35:24.524Z,9.20
2023-05-24T13:37:54.554Z,12.20
2023-05-24T13:40:25.232Z,11.90
2023-05-24T13:42:57.831Z,12.00
2023-05-24T13:45:25.823Z,16.60
2023-05-24T13:47:58.538Z,13.40
2023-05-24T13:50:26.983Z,12.40
2023-05-24T13:52:57.988Z,13.50
2023-05-24T13:55:26.172Z,17.60
2023-05-24T13:57:55.802Z,8.90
2023-05-24T14:00:24.516Z,13.60
2023-05-24T14:02:53.584Z,14.40
2023-05-24T14:07:55.180Z,12.00
2023-05-24T14:10:23.891Z,13.70
2023-05-24T14:13:10.873Z,13.50
2023-05-24T14:15:40.291Z,20.50
2023-05-24T14:18:08.942Z,14.90
2023-05-24T14:20:38.321Z,16.70
2023-05-24T14:23:10.194Z,15.00
2023-05-24T14:25:38.406Z,15.80
2023-05-24T14:28:08.880Z,10.60
2023-05-24T14:30:40.360Z,16.90
2023-05-24T14:33:08.714Z,16.70
2023-05-24T14:35:40.207Z,14.70
2023-05-24T14:38:10.363Z,12.70
2023-05-24T14:40:40.319Z,17.40
2023-05-24T14:43:10.808Z,15.90
2023-05-24T14:45:42.323Z,13.50
2023-05-24T14:48:12.330Z,16.20
2023-05-24T14:50:41.385Z,13.70
2023-05-24T14:53:12.733Z,12.80
2023-05-24T14:55:42.453Z,12.50
2023-05-24T14:58:14.371Z,15.90
2023-05-24T15:00:43.140Z,16.90
2023-05-24T15:03:15.155Z,16.40
2023-05-24T15:05:43.432Z,17.30
2023-05-24T15:08:11.771Z,18.20
2023-05-24T15:10:40.335Z,18.20
2023-05-24T15:13:13.061Z,14.60
2023-05-24T15:15:47.748Z,24.20
2023-05-24T15:18:38.825Z,35.40
2023-05-24T15:21:07.932Z,35.80
2023-05-24T15:23:36.658Z,23.80
2023-05-24T15:26:04.638Z,26.00
2023-05-24T15:28:32.743Z,18.30
2023-05-24T15:31:02.106Z,18.90
2023-05-24T15:33:32.902Z,28.10
2023-05-24T15:36:01.511Z,20.50
2023-05-24T15:38:30.732Z,27.00
2023-05-24T15:40:58.529Z,24.70
2023-05-24T15:43:29.961Z,24.80
2023-05-24T15:46:00.889Z,22.80
2023-05-24T15:48:30.067Z,27.50
2023-05-24T15:51:53.581Z,18.80
2023-05-24T15:53:50.423Z,19.00
2023-05-24T15:56:18.527Z,27.10
2023-05-24T15:58:46.544Z,28.10
2023-05-24T16:01:14.687Z,31.80
2023-05-24T16:03:42.757Z,26.10
2023-05-24T16:06:11.037Z,31.30
2023-05-24T16:08:39.058Z,26.30
2023-05-24T16:11:08.680Z,27.40
2023-05-24T16:13:36.653Z,33.80
2023-05-24T16:16:04.932Z,25.70
2023-05-24T16:18:35.792Z,38.20
2023-05-24T16:21:04.333Z,33.40
2023-05-24T16:23:32.900Z,33.50
2023-05-24T16:26:01.063Z,28.80
2023-05-24T16:28:29.241Z,31.80
2023-05-24T16:30:59.118Z,35.40
2023-05-24T16:33:27.045Z,42.20
2023-05-24T16:36:01.200Z,40.80
2023-05-24T16:38:32.174Z,43.10
2023-05-24T16:41:03.279Z,40.30
2023-05-24T16:43:32.152Z,38.10
2023-05-24T16:46:00.969Z,51.40
2023-05-24T16:48:31.839Z,47.30
2023-05-24T16:51:00.949Z,50.70
2023-05-24T16:53:29.259Z,40.30
2023-05-24T16:55:58.305Z,46.20
2023-05-24T16:58:31.053Z,37.80
2023-05-24T17:00:59.487Z,49.10
2023-05-24T17:03:32.336Z,34.50
2023-05-24T17:06:04.286Z,30.40
2023-05-24T17:08:38.783Z,50.00
2023-05-24T17:11:06.862Z,46.00
2023-05-24T17:13:34.984Z,32.30
2023-05-24T17:16:04.315Z,25.20
2023-05-24T17:18:32.975Z,23.90
2023-05-24T17:21:03.327Z,20.50
2023-05-24T17:23:36.831Z,30.80
2023-05-24T17:26:06.088Z,30.20
2023-05-24T17:28:41.514Z,28.50
2023-05-24T17:31:09.863Z,22.50
2023-05-24T17:33:37.969Z,21.40
2023-05-24T17:36:07.385Z,19.10
2023-05-24T17:38:38.220Z,20.60
2023-05-24T17:41:26.779Z,26.20
2023-05-24T17:43:54.735Z,18.20
2023-05-24T17:46:22.985Z,28.90
2023-05-24T17:48:52.159Z,20.80
2023-05-24T17:51:20.311Z,23.30
2023-05-24T17:53:48.405Z,21.70
2023-05-24T17:56:16.936Z,59.90
2023-05-24T17:58:46.867Z,27.50
2023-05-24T18:01:15.984Z,30.50
2023-05-24T18:03:44.379Z,23.10
2023-05-24T18:06:12.434Z,23.10
2023-05-24T18:08:43.925Z,23.20
2023-05-24T18:11:13.867Z,26.70
2023-05-24T18:13:42.690Z,27.50
2023-05-24T18:16:11.614Z,21.40
2023-05-24T18:18:40.564Z,26.60
2023-05-24T18:21:09.976Z,41.60
2023-05-24T18:23:39.652Z,47.90
2023-05-24T18:26:09.142Z,39.10
2023-05-24T18:28:37.993Z,36.40
2023-05-24T18:31:08.761Z,34.50
2023-05-24T18:33:38.137Z,34.70
2023-05-24T18:36:06.679Z,32.60
2023-05-24T18:38:34.991Z,28.20
2023-05-24T18:41:06.083Z,38.00
2023-05-24T18:43:34.540Z,49.40
2023-05-24T18:46:02.932Z,39.40
2023-05-24T18:48:31.154Z,26.10
2023-05-24T18:50:59.486Z,29.20
2023-05-24T18:53:27.704Z,23.10
2023-05-24T18:55:56.165Z,25.40
2023-05-24T18:58:24.341Z,28.00
2023-05-24T19:00:52.321Z,30.60
2023-05-24T19:03:22.332Z,27.90
2023-05-24T19:05:53.037Z,28.00
2023-05-24T19:08:21.417Z,29.90
2023-05-24T19:10:49.635Z,22.70
2023-05-24T19:13:18.723Z,26.00
2023-05-24T19:15:46.857Z,22.50
2023-05-24T19:18:15.041Z,25.70
2023-05-24T19:20:43.506Z,24.00
2023-05-24T19:23:11.579Z,22.00
2023-05-24T19:25:42.144Z,22.80
2023-05-24T19:28:11.010Z,20.70
2023-05-24T19:30:39.078Z,29.10
2023-05-24T19:33:07.769Z,23.60
2023-05-24T19:35:37.098Z,23.40
2023-05-24T19:38:05.067Z,23.40
2023-05-24T19:40:33.307Z,21.90
2023-05-24T19:43:01.304Z,21.50
2023-05-24T19:45:29.339Z,18.30
2023-05-24T19:47:57.421Z,19.60
2023-05-24T19:50:26.729Z,17.60
2023-05-24T19:52:58.629Z,22.10
2023-05-24T19:55:26.738Z,21.40
2023-05-24T19:57:54.799Z,21.00
2023-05-24T20:00:22.763Z,20.50
2023-05-24T20:02:50.894Z,20.60
2023-05-24T20:05:19.184Z,18.70
2023-05-24T20:07:47.116Z,16.20
2023-05-24T20:10:15.254Z,17.20
2023-05-24T20:12:43.654Z,18.90
2023-05-24T20:15:15.249Z,17.80
2023-05-24T20:17:45.913Z,17.90
2023-05-24T20:20:14.394Z,19.30
2023-05-24T20:22:42.603Z,27.80
2023-05-24T20:25:11.161Z,20.10
2023-05-24T20:27:40.748Z,16.40
2023-05-24T20:30:10.023Z,18.60
2023-05-24T20:32:38.365Z,34.60
2023-05-24T20:35:07.263Z,18.20
2023-05-24T20:37:35.325Z,20.10
2023-05-24T20:40:07.618Z,17.00
2023-05-24T20:42:35.998Z,18.90
2023-05-24T20:45:04.261Z,20.70
2023-05-24T20:47:32.258Z,20.10
2023-05-24T20:50:00.253Z,16.20
2023-05-24T20:52:28.186Z,16.00
2023-05-24T20:54:56.784Z,16.50
2023-05-24T20:57:24.811Z,18.40
2023-05-24T20:59:54.705Z,21.10
2023-05-24T21:02:25.564Z,15.00
2023-05-24T21:04:53.731Z,23.10
2023-05-24T21:07:22.393Z,20.70
2023-05-24T21:09:50.357Z,23.90
2023-05-24T21:12:18.455Z,21.50
2023-05-24T21:14:46.492Z,16.60
2023-05-24T21:17:14.639Z,21.70
2023-05-24T21:19:42.482Z,22.30
2023-05-24T21:22:10.670Z,25.40
2023-05-24T21:24:39.206Z,18.50
2023-05-24T21:27:08.143Z,24.80
2023-05-24T21:29:38.368Z,23.00
2023-05-24T21:32:07.378Z,26.00
2023-05-24T21:34:36.751Z,25.30
2023-05-24T21:37:05.274Z,26.70
2023-05-24T21:39:33.412Z,22.00
2023-05-24T21:42:02.404Z,26.50
2023-05-24T21:44:30.454Z,20.70
2023-05-24T21:46:58.569Z,18.80
2023-05-24T21:49:27.717Z,29.00
2023-05-24T21:51:55.612Z,20.90
2023-05-24T21:54:23.477Z,21.00
2023-05-24T21:56:51.440Z,23.90
2023-05-24T21:59:21.527Z,22.90
2023-05-24T22:01:49.558Z,29.80
2023-05-24T22:04:17.963Z,26.50
2023-05-24T22:06:46.621Z,22.20
2023-05-24T22:09:15.043Z,22.80
2023-05-24T22:11:43.061Z,23.30
2023-05-24T22:14:11.096Z,19.90
2023-05-24T22:16:39.283Z,21.00
2023-05-24T22:19:16.435Z,29.50
2023-05-24T22:21:46.124Z,23.90
2023-05-24T22:24:14.270Z,26.10
2023-05-24T22:26:46.909Z,24.90
2023-05-24T22:29:15.074Z,29.20
2023-05-24T22:31:44.167Z,29.10
2023-05-24T22:34:12.274Z,23.70
2023-05-24T22:36:40.193Z,21.80
2023-05-24T22:39:08.167Z,26.00
2023-05-24T22:41:36.380Z,27.60
2023-05-24T22:44:04.262Z,24.50
2023-05-24T22:46:32.338Z,25.60
2023-05-24T22:49:03.317Z,22.30
2023-05-24T22:54:00.813Z,21.50
2023-05-24T22:56:28.937Z,22.50
2023-05-24T22:58:58.050Z,23.60
2023-05-24T23:01:27.183Z,24.40
2023-05-24T23:04:11.619Z,24.80
2023-05-24T23:06:47.115Z,22.80
2023-05-24T23:09:15.732Z,29.30
2023-05-24T23:11:44.688Z,26.80
2023-05-24T23:14:12.649Z,25.10
2023-05-24T23:17:02.870Z,26.10
2023-05-24T23:19:31.941Z,32.70
2023-05-24T23:21:59.999Z,24.90
2023-05-24T23:24:28.164Z,25.80
2023-05-24T23:26:57.253Z,22.60
2023-05-24T23:29:25.419Z,26.70
2023-05-24T23:31:54.443Z,23.80
2023-05-24T23:34:21.983Z,24.10
2023-05-24T23:36:50.712Z,23.10
2023-05-24T23:39:18.313Z,26.80
2023-05-24T23:41:48.077Z,28.40
2023-05-24T23:44:16.160Z,23.60
2023-05-24T23:46:44.455Z,29.10
2023-05-24T23:49:12.951Z,25.20
2023-05-24T23:51:41.268Z,26.80
2023-05-24T23:54:09.000Z,25.30
2023-05-24T23:56:43.703Z,28.00
2023-05-24T23:59:11.202Z,23.20
